createdAt,value
2023-01-29T00:00:17.057Z,4.57
2023-01-29T00:02:48.286Z,4.00
2023-01-29T00:05:27.383Z,3.85
2023-01-29T00:07:56.337Z,4.00
2023-01-29T00:10:24.662Z,4.07
2023-01-29T00:13:04.905Z,3.80
2023-01-29T00:15:37.324Z,3.70
2023-01-29T00:18:06.218Z,3.97
2023-01-29T00:20:35.227Z,4.93
2023-01-29T00:23:02.091Z,4.35
2023-01-29T00:25:30.942Z,4.43
2023-01-29T00:27:59.947Z,4.30
2023-01-29T00:30:26.788Z,5.35
2023-01-29T00:32:56.817Z,5.07
2023-01-29T00:35:26.026Z,4.53
2023-01-29T00:37:54.657Z,4.70
2023-01-29T00:40:22.237Z,4.63
2023-01-29T00:43:09.027Z,4.13
2023-01-29T00:45:36.134Z,4.07
2023-01-29T00:48:03.937Z,4.50
2023-01-29T00:50:31.401Z,4.13
2023-01-29T00:53:00.496Z,4.30
2023-01-29T00:55:27.219Z,3.83
2023-01-29T00:57:54.068Z,4.07
2023-01-29T01:00:20.843Z,4.55
2023-01-29T01:03:05.845Z,3.97
2023-01-29T01:05:33.099Z,4.60
2023-01-29T01:07:59.878Z,4.45
2023-01-29T01:10:32.098Z,4.65
2023-01-29T01:13:00.202Z,3.90
2023-01-29T01:15:30.102Z,4.22
2023-01-29T01:18:00.923Z,4.65
2023-01-29T01:20:29.944Z,4.55
2023-01-29T01:22:57.363Z,4.72
2023-01-29T01:25:26.039Z,4.28
2023-01-29T01:27:53.836Z,3.90
2023-01-29T01:30:22.347Z,4.40
2023-01-29T01:32:55.473Z,4.00
2023-01-29T01:35:26.462Z,4.82
2023-01-29T01:37:53.201Z,4.50
2023-01-29T01:40:23.858Z,4.00
2023-01-29T01:42:56.840Z,4.55
2023-01-29T01:45:30.476Z,4.05
2023-01-29T01:48:07.150Z,4.20
2023-01-29T01:50:48.638Z,4.45
2023-01-29T01:53:19.052Z,3.80
2023-01-29T01:56:05.104Z,4.70
2023-01-29T01:58:37.562Z,5.03
2023-01-29T02:01:11.586Z,5.60
2023-01-29T02:04:08.529Z,5.10
2023-01-29T02:06:57.341Z,5.40
2023-01-29T02:09:30.795Z,5.25
2023-01-29T02:12:00.132Z,4.45
2023-01-29T02:14:26.798Z,4.25
2023-01-29T02:16:53.808Z,4.30
2023-01-29T02:19:45.335Z,4.65
2023-01-29T02:22:25.032Z,4.40
2023-01-29T02:25:10.641Z,4.57
2023-01-29T02:28:13.328Z,4.28
2023-01-29T02:34:56.285Z,4.32
2023-01-29T02:37:34.161Z,8.35
2023-01-29T02:40:30.406Z,8.75
2023-01-29T02:43:03.928Z,4.35
2023-01-29T02:45:36.467Z,4.97
2023-01-29T02:48:03.559Z,4.45
2023-01-29T02:50:48.587Z,3.45
2023-01-29T02:53:29.059Z,4.00
2023-01-29T02:56:09.455Z,3.92
2023-01-29T02:58:56.991Z,4.55
2023-01-29T03:01:35.398Z,4.45
2023-01-29T03:04:11.829Z,7.95
2023-01-29T03:06:42.400Z,6.72
2023-01-29T03:09:24.758Z,4.82
2023-01-29T03:11:59.420Z,4.38
2023-01-29T03:14:49.621Z,3.90
2023-01-29T03:17:17.286Z,4.38
2023-01-29T03:19:46.610Z,4.53
2023-01-29T03:22:22.943Z,4.47
2023-01-29T03:25:15.892Z,4.35
2023-01-29T03:28:17.637Z,4.03
2023-01-29T03:31:17.210Z,4.28
2023-01-29T03:34:04.573Z,4.90
2023-01-29T03:36:58.659Z,4.30
2023-01-29T03:39:30.669Z,4.13
2023-01-29T03:42:29.576Z,4.40
2023-01-29T03:45:17.347Z,4.68
2023-01-29T03:47:59.959Z,4.57
2023-01-29T03:50:33.886Z,4.45
2023-01-29T03:53:11.669Z,5.03
2023-01-29T03:55:58.914Z,4.38
2023-01-29T03:58:47.436Z,4.40
2023-01-29T04:01:24.422Z,3.88
2023-01-29T04:04:02.722Z,4.82
2023-01-29T04:06:36.297Z,4.45
2023-01-29T04:12:15.221Z,6.43
2023-01-29T04:14:45.608Z,6.30
2023-01-29T04:17:16.177Z,5.47
2023-01-29T04:19:52.769Z,4.68
2023-01-29T04:22:37.404Z,4.45
2023-01-29T04:25:15.244Z,4.38
2023-01-29T04:28:15.654Z,4.00
2023-01-29T04:30:59.050Z,4.65
2023-01-29T04:33:44.004Z,4.35
2023-01-29T04:36:38.253Z,4.38
2023-01-29T04:39:24.068Z,4.22
2023-01-29T04:42:02.978Z,4.45
2023-01-29T04:44:40.843Z,3.90
2023-01-29T04:47:38.372Z,4.00
2023-01-29T04:50:36.383Z,3.83
2023-01-29T04:53:31.857Z,3.47
2023-01-29T04:56:20.055Z,3.70
2023-01-29T04:58:54.097Z,4.30
2023-01-29T05:01:24.981Z,3.05
2023-01-29T05:03:55.736Z,3.83
2023-01-29T05:06:24.243Z,4.38
2023-01-29T05:08:51.605Z,4.68
2023-01-29T05:11:21.465Z,4.57
2023-01-29T05:13:48.788Z,4.55
2023-01-29T05:16:26.283Z,3.65
2023-01-29T05:18:55.799Z,3.10
2023-01-29T05:21:23.617Z,3.92
2023-01-29T05:24:14.906Z,3.60
2023-01-29T05:27:04.809Z,3.38
2023-01-29T05:29:33.969Z,3.67
2023-01-29T05:32:00.833Z,3.20
2023-01-29T05:34:29.620Z,3.67
2023-01-29T05:36:58.368Z,3.60
2023-01-29T05:39:24.984Z,3.25
2023-01-29T05:41:51.677Z,3.60
2023-01-29T05:44:20.737Z,3.17
2023-01-29T05:46:49.742Z,3.13
2023-01-29T05:49:17.546Z,3.35
2023-01-29T05:51:46.572Z,3.28
2023-01-29T05:54:16.565Z,3.00
2023-01-29T05:56:43.309Z,3.08
2023-01-29T05:59:10.115Z,3.45
2023-01-29T06:01:36.965Z,3.25
2023-01-29T06:04:05.964Z,3.20
2023-01-29T06:06:32.703Z,3.40
2023-01-29T06:09:01.003Z,3.35
2023-01-29T06:11:27.634Z,3.30
2023-01-29T06:13:54.734Z,2.83
2023-01-29T06:16:21.536Z,2.92
2023-01-29T06:18:53.154Z,3.22
2023-01-29T06:21:20.951Z,3.47
2023-01-29T06:23:50.246Z,4.30
2023-01-29T06:26:16.855Z,4.25
2023-01-29T06:28:45.148Z,4.00
2023-01-29T06:31:37.452Z,3.53
2023-01-29T06:34:22.951Z,4.05
2023-01-29T06:36:51.840Z,3.25
2023-01-29T06:39:22.312Z,2.75
2023-01-29T06:41:48.951Z,3.35
2023-01-29T06:44:15.728Z,3.20
2023-01-29T06:46:42.592Z,2.47
2023-01-29T06:49:09.331Z,2.47
2023-01-29T06:51:36.025Z,3.90
2023-01-29T06:54:02.870Z,6.97
2023-01-29T06:59:34.276Z,4.65
2023-01-29T07:02:02.280Z,3.20
2023-01-29T07:04:28.963Z,2.50
2023-01-29T07:06:59.940Z,3.08
2023-01-29T07:09:26.727Z,3.85
2023-01-29T07:11:57.780Z,3.80
2023-01-29T07:14:24.384Z,4.75
2023-01-29T07:16:53.251Z,3.90
2023-01-29T07:19:21.059Z,3.20
2023-01-29T07:21:47.642Z,3.28
2023-01-29T07:24:15.570Z,4.28
2023-01-29T07:26:44.623Z,3.75
2023-01-29T07:29:16.609Z,3.88
2023-01-29T07:31:45.098Z,3.17
2023-01-29T07:34:11.770Z,3.75
2023-01-29T07:36:38.570Z,3.85
2023-01-29T07:39:07.256Z,4.10
2023-01-29T07:41:38.542Z,4.28
2023-01-29T07:44:17.313Z,4.70
2023-01-29T07:46:51.086Z,4.05
2023-01-29T07:49:17.895Z,2.88
2023-01-29T07:51:44.548Z,3.85
2023-01-29T07:54:11.084Z,3.67
2023-01-29T07:56:38.053Z,3.83
2023-01-29T07:59:06.884Z,3.33
2023-01-29T08:01:33.478Z,3.47
2023-01-29T08:04:00.117Z,3.38
2023-01-29T08:06:26.932Z,4.25
2023-01-29T08:08:54.972Z,4.82
2023-01-29T08:11:21.574Z,3.88
2023-01-29T08:13:53.693Z,4.05
2023-01-29T08:16:20.400Z,3.72
2023-01-29T08:18:48.072Z,3.55
2023-01-29T08:21:17.068Z,3.70
2023-01-29T08:23:45.919Z,3.47
2023-01-29T08:26:17.775Z,3.08
2023-01-29T08:28:44.402Z,3.57
2023-01-29T08:31:21.170Z,3.60
2023-01-29T08:33:50.882Z,3.85
2023-01-29T08:36:17.487Z,3.92
2023-01-29T08:38:46.601Z,5.47
2023-01-29T08:41:13.214Z,4.55
2023-01-29T08:43:42.350Z,4.53
2023-01-29T08:46:09.137Z,4.05
2023-01-29T08:48:35.834Z,4.00
2023-01-29T08:51:03.666Z,4.30
2023-01-29T08:53:32.032Z,4.55
2023-01-29T08:56:00.760Z,4.22
2023-01-29T08:58:27.408Z,8.35
2023-01-29T09:00:56.292Z,5.65
2023-01-29T09:03:25.323Z,4.43
2023-01-29T09:05:51.976Z,4.38
2023-01-29T09:08:22.147Z,4.72
2023-01-29T09:10:48.936Z,4.22
2023-01-29T09:13:15.663Z,3.60
2023-01-29T09:15:42.454Z,3.60
2023-01-29T09:18:10.177Z,4.10
2023-01-29T09:20:39.172Z,3.95
2023-01-29T09:23:10.110Z,4.15
2023-01-29T09:25:37.144Z,4.00
2023-01-29T09:28:05.450Z,3.83
2023-01-29T09:30:33.804Z,4.07
2023-01-29T09:33:01.255Z,4.15
2023-01-29T09:35:30.221Z,3.30
2023-01-29T09:37:57.016Z,3.83
2023-01-29T09:40:52.304Z,4.13
2023-01-29T09:43:44.483Z,4.03
2023-01-29T09:46:50.845Z,4.72
2023-01-29T09:49:30.856Z,4.47
2023-01-29T09:52:04.409Z,4.55
2023-01-29T09:54:58.888Z,5.40
2023-01-29T09:57:33.665Z,4.20
2023-01-29T10:00:03.048Z,4.18
2023-01-29T10:02:53.765Z,5.22
2023-01-29T10:05:38.455Z,4.75
2023-01-29T10:08:22.967Z,3.42
2023-01-29T10:10:50.379Z,4.47
2023-01-29T10:13:47.320Z,4.32
2023-01-29T10:16:40.175Z,5.45
2023-01-29T10:19:34.524Z,10.38
2023-01-29T10:22:38.259Z,5.53
2023-01-29T10:25:09.352Z,4.05
2023-01-29T10:27:39.662Z,3.45
2023-01-29T10:30:19.297Z,3.90
2023-01-29T10:32:47.793Z,3.97
2023-01-29T10:35:40.667Z,3.20
2023-01-29T10:38:27.406Z,4.30
2023-01-29T10:41:02.107Z,3.65
2023-01-29T10:44:06.544Z,3.88
2023-01-29T10:47:01.322Z,3.95
2023-01-29T10:49:40.042Z,3.55
2023-01-29T10:52:10.499Z,3.55
2023-01-29T10:54:39.874Z,3.83
2023-01-29T10:57:25.866Z,3.75
2023-01-29T11:00:15.539Z,6.78
2023-01-29T11:02:49.573Z,4.18
2023-01-29T11:05:48.363Z,4.90
2023-01-29T11:08:20.395Z,4.18
2023-01-29T11:11:16.550Z,4.20
2023-01-29T11:13:56.686Z,3.67
2023-01-29T11:16:26.094Z,3.72
2023-01-29T11:19:01.148Z,3.42
2023-01-29T11:21:29.194Z,4.25
2023-01-29T11:24:10.359Z,3.90
2023-01-29T11:26:41.502Z,4.50
2023-01-29T11:29:32.088Z,3.38
2023-01-29T11:32:01.640Z,4.00
2023-01-29T11:34:30.240Z,4.20
2023-01-29T11:36:58.127Z,4.05
2023-01-29T11:39:26.827Z,6.30
2023-01-29T11:42:03.390Z,3.65
2023-01-29T11:44:42.596Z,3.85
2023-01-29T11:47:23.245Z,3.58
2023-01-29T11:49:58.398Z,4.15
2023-01-29T11:52:34.772Z,4.47
2023-01-29T11:55:13.328Z,4.10
2023-01-29T11:57:48.414Z,3.70
2023-01-29T12:00:26.521Z,4.00
2023-01-29T12:03:23.231Z,4.25
2023-01-29T12:06:15.967Z,3.90
2023-01-29T12:08:55.034Z,4.10
2023-01-29T12:11:32.614Z,3.95
2023-01-29T12:14:04.682Z,4.25
2023-01-29T12:16:41.238Z,3.38
2023-01-29T12:19:25.815Z,3.80
2023-01-29T12:22:02.185Z,4.00
2023-01-29T12:24:48.636Z,6.70
2023-01-29T12:29:59.531Z,3.63
2023-01-29T12:32:58.698Z,5.68
2023-01-29T12:35:38.831Z,6.05
2023-01-29T12:38:18.847Z,4.80
2023-01-29T12:41:04.576Z,4.43
2023-01-29T12:43:52.960Z,3.97
2023-01-29T12:46:27.895Z,3.97
2023-01-29T12:48:57.598Z,4.68
2023-01-29T12:51:30.791Z,4.07
2023-01-29T12:54:07.771Z,4.35
2023-01-29T12:56:46.545Z,4.40
2023-01-29T12:59:16.454Z,3.60
2023-01-29T13:01:53.636Z,4.75
2023-01-29T13:04:36.455Z,3.67
2023-01-29T13:07:18.311Z,3.83
2023-01-29T13:09:51.126Z,3.53
2023-01-29T13:12:23.457Z,3.72
2023-01-29T13:15:22.503Z,4.20
2023-01-29T13:17:58.266Z,3.72
2023-01-29T13:20:34.710Z,3.70
2023-01-29T13:23:20.126Z,4.07
2023-01-29T13:25:51.158Z,4.03
2023-01-29T13:28:26.422Z,3.47
2023-01-29T13:31:37.025Z,4.63
2023-01-29T13:34:13.375Z,4.63
2023-01-29T13:36:52.140Z,4.80
2023-01-29T13:39:29.050Z,4.32
2023-01-29T13:41:58.404Z,6.55
2023-01-29T13:44:39.028Z,4.50
2023-01-29T13:47:21.125Z,3.90
2023-01-29T13:50:40.422Z,5.38
2023-01-29T13:53:23.581Z,4.45
2023-01-29T13:55:50.843Z,3.92
2023-01-29T13:58:43.245Z,3.95
2023-01-29T14:01:10.544Z,4.43
2023-01-29T14:04:04.095Z,4.78
2023-01-29T14:06:46.843Z,5.07
2023-01-29T14:09:32.751Z,4.27
2023-01-29T14:11:59.751Z,5.47
2023-01-29T14:14:48.677Z,4.32
2023-01-29T14:17:20.114Z,4.38
2023-01-29T14:19:52.424Z,4.68
2023-01-29T14:22:26.545Z,4.63
2023-01-29T14:25:01.663Z,5.43
2023-01-29T14:27:29.115Z,7.45
2023-01-29T14:30:02.495Z,6.82
2023-01-29T14:32:29.512Z,4.30
2023-01-29T14:35:33.139Z,7.60
2023-01-29T14:38:07.216Z,4.75
2023-01-29T14:40:36.588Z,5.53
2023-01-29T14:43:20.206Z,4.63
2023-01-29T14:45:48.712Z,4.10
2023-01-29T14:48:47.858Z,4.30
2023-01-29T14:51:17.132Z,4.85
2023-01-29T14:54:05.713Z,4.20
2023-01-29T14:56:55.391Z,6.20
2023-01-29T14:59:39.377Z,11.50
2023-01-29T15:02:20.131Z,22.55
2023-01-29T15:04:50.171Z,11.75
2023-01-29T15:07:35.910Z,8.68
2023-01-29T15:10:36.547Z,5.47
2023-01-29T15:13:08.136Z,6.75
2023-01-29T15:15:44.814Z,4.28
2023-01-29T15:18:39.223Z,3.85
2023-01-29T15:21:17.387Z,4.15
2023-01-29T15:23:48.584Z,3.63
2023-01-29T15:26:26.985Z,6.15
2023-01-29T15:29:05.063Z,5.15
2023-01-29T15:31:36.973Z,4.47
2023-01-29T15:34:11.457Z,5.43
2023-01-29T15:36:42.661Z,5.95
2023-01-29T15:39:11.906Z,6.45
2023-01-29T15:41:43.353Z,5.13
2023-01-29T15:44:22.553Z,4.70
2023-01-29T15:46:55.735Z,4.32
2023-01-29T15:49:34.766Z,5.60
2023-01-29T15:52:28.144Z,5.97
2023-01-29T15:55:02.337Z,5.65
2023-01-29T15:57:39.867Z,5.78
2023-01-29T16:00:17.791Z,6.75
2023-01-29T16:02:49.651Z,8.90
2023-01-29T16:05:20.226Z,9.17
2023-01-29T16:07:49.517Z,8.20
2023-01-29T16:10:27.566Z,10.15
2023-01-29T16:12:58.253Z,9.30
2023-01-29T16:15:39.469Z,8.80
2023-01-29T16:18:58.059Z,7.32
2023-01-29T16:21:39.053Z,5.40
2023-01-29T16:24:15.186Z,7.90
2023-01-29T16:26:47.434Z,11.95
2023-01-29T16:29:18.240Z,11.32
2023-01-29T16:31:50.496Z,10.07
2023-01-29T16:34:23.815Z,10.27
2023-01-29T16:36:54.660Z,9.10
2023-01-29T16:39:33.744Z,8.48
2023-01-29T16:42:16.557Z,7.30
2023-01-29T16:44:49.731Z,7.78
2023-01-29T16:47:38.791Z,7.25
2023-01-29T16:50:36.143Z,5.78
2023-01-29T16:53:10.907Z,6.00
2023-01-29T16:58:27.655Z,5.22
2023-01-29T17:01:08.972Z,6.40
2023-01-29T17:03:36.825Z,5.22
2023-01-29T17:06:20.578Z,5.80
2023-01-29T17:08:47.635Z,5.82
2023-01-29T17:11:35.482Z,6.38
2023-01-29T17:14:04.213Z,6.82
2023-01-29T17:16:34.688Z,6.53
2023-01-29T17:19:10.672Z,8.57
2023-01-29T17:21:39.045Z,8.57
2023-01-29T17:24:06.120Z,7.70
2023-01-29T17:26:32.871Z,7.40
2023-01-29T17:28:59.699Z,6.55
2023-01-29T17:31:26.377Z,6.32
2023-01-29T17:33:56.639Z,5.53
2023-01-29T17:36:23.342Z,5.40
2023-01-29T17:38:51.023Z,5.80
2023-01-29T17:41:17.658Z,6.15
2023-01-29T17:43:44.336Z,5.65
2023-01-29T17:46:16.095Z,6.43
2023-01-29T17:48:45.583Z,7.10
2023-01-29T17:51:19.326Z,6.30
2023-01-29T17:53:47.181Z,8.45
2023-01-29T17:56:28.209Z,12.50
2023-01-29T17:58:57.532Z,12.30
2023-01-29T18:01:26.298Z,13.50
2023-01-29T18:03:53.170Z,14.27
2023-01-29T18:06:27.252Z,12.80
2023-01-29T18:08:56.496Z,12.43
2023-01-29T18:11:25.631Z,11.77
2023-01-29T18:13:54.471Z,10.30
2023-01-29T18:16:27.862Z,9.45
2023-01-29T18:18:54.544Z,9.70
2023-01-29T18:21:22.469Z,8.07
2023-01-29T18:23:54.931Z,8.00
2023-01-29T18:26:21.985Z,8.27
2023-01-29T18:28:51.490Z,7.45
2023-01-29T18:31:22.352Z,7.80
2023-01-29T18:33:49.027Z,7.68
2023-01-29T18:36:15.926Z,10.45
2023-01-29T18:38:42.606Z,10.85
2023-01-29T18:41:10.056Z,11.05
2023-01-29T18:43:37.909Z,9.68
2023-01-29T18:46:06.004Z,11.63
2023-01-29T18:48:38.163Z,10.27
2023-01-29T18:51:07.840Z,10.77
2023-01-29T18:53:34.630Z,10.18
2023-01-29T18:56:06.980Z,10.40
2023-01-29T18:58:36.622Z,10.70
2023-01-29T19:01:11.172Z,10.40
2023-01-29T19:03:41.099Z,10.70
2023-01-29T19:06:10.090Z,12.35
2023-01-29T19:08:38.835Z,11.27
2023-01-29T19:11:07.398Z,11.38
2023-01-29T19:13:37.299Z,11.45
2023-01-29T19:16:08.470Z,11.13
2023-01-29T19:18:39.159Z,10.15
2023-01-29T19:21:14.277Z,9.77
2023-01-29T19:23:45.994Z,9.13
2023-01-29T19:26:12.890Z,8.55
2023-01-29T19:28:40.328Z,8.95
2023-01-29T19:31:15.307Z,9.98
2023-01-29T19:33:43.117Z,13.27
2023-01-29T19:36:18.167Z,14.75
2023-01-29T19:41:13.790Z,16.33
2023-01-29T19:43:41.298Z,14.98
2023-01-29T19:46:13.033Z,14.77
2023-01-29T19:48:41.141Z,14.00
2023-01-29T19:51:13.681Z,13.32
2023-01-29T19:53:44.699Z,11.70
2023-01-29T19:56:14.679Z,10.60
2023-01-29T19:58:44.263Z,11.38
2023-01-29T20:01:20.936Z,10.02
2023-01-29T20:03:55.142Z,8.73
2023-01-29T20:06:30.111Z,9.07
2023-01-29T20:09:04.399Z,8.95
2023-01-29T20:11:31.537Z,8.63
2023-01-29T20:13:58.499Z,8.70
2023-01-29T20:16:32.120Z,9.68
2023-01-29T20:19:14.387Z,10.18
2023-01-29T20:21:48.089Z,10.23
2023-01-29T20:24:16.569Z,11.18
2023-01-29T20:26:43.743Z,8.57
2023-01-29T20:29:12.646Z,9.88
2023-01-29T20:31:39.282Z,9.73
2023-01-29T20:34:08.530Z,8.48
2023-01-29T20:36:39.407Z,9.30
2023-01-29T20:39:06.042Z,9.43
2023-01-29T20:41:58.322Z,9.13
2023-01-29T20:44:25.195Z,8.63
2023-01-29T20:49:51.653Z,8.27
2023-01-29T20:52:19.380Z,7.80
2023-01-29T20:54:49.107Z,8.98
2023-01-29T20:57:15.681Z,9.20
2023-01-29T20:59:44.793Z,9.52
2023-01-29T21:02:16.531Z,9.10
2023-01-29T21:04:44.358Z,10.27
2023-01-29T21:07:14.253Z,9.98
2023-01-29T21:09:41.214Z,8.80
2023-01-29T21:12:07.899Z,10.40
2023-01-29T21:14:36.839Z,10.60
2023-01-29T21:17:09.215Z,9.30
2023-01-29T21:19:35.940Z,8.68
2023-01-29T21:22:04.786Z,8.77
2023-01-29T21:24:33.322Z,8.77
2023-01-29T21:27:03.311Z,8.10
2023-01-29T21:29:30.038Z,9.35
2023-01-29T21:31:56.783Z,8.65
2023-01-29T21:34:23.676Z,8.68
2023-01-29T21:36:54.242Z,9.77
2023-01-29T21:39:23.615Z,9.30
2023-01-29T21:42:10.418Z,8.23
2023-01-29T21:44:39.936Z,10.77
2023-01-29T21:47:11.483Z,9.00
2023-01-29T21:49:42.813Z,9.15
2023-01-29T21:52:11.831Z,8.75
2023-01-29T21:54:40.387Z,8.30
2023-01-29T21:57:14.118Z,8.02
2023-01-29T21:59:52.883Z,8.23
2023-01-29T22:02:26.698Z,8.02
2023-01-29T22:05:02.424Z,7.70
2023-01-29T22:07:40.238Z,7.22
2023-01-29T22:10:07.506Z,7.88
2023-01-29T22:12:34.193Z,8.60
2023-01-29T22:15:04.090Z,8.25
2023-01-29T22:17:31.246Z,8.40
2023-01-29T22:20:00.478Z,9.73
2023-01-29T22:22:28.268Z,8.88
2023-01-29T22:24:56.932Z,8.43
2023-01-29T22:27:27.445Z,8.70
2023-01-29T22:29:56.507Z,8.75
2023-01-29T22:32:23.205Z,7.88
2023-01-29T22:34:49.862Z,8.20
2023-01-29T22:37:16.707Z,9.18
2023-01-29T22:39:43.467Z,10.70
2023-01-29T22:42:10.101Z,8.40
2023-01-29T22:44:42.579Z,8.55
2023-01-29T22:47:09.428Z,8.65
2023-01-29T22:49:39.421Z,9.75
2023-01-29T22:52:11.920Z,8.75
2023-01-29T22:54:40.415Z,8.73
2023-01-29T22:57:12.692Z,9.05
2023-01-29T22:59:47.410Z,7.82
2023-01-29T23:02:14.922Z,7.20
2023-01-29T23:04:50.540Z,8.27
2023-01-29T23:07:19.099Z,8.10
2023-01-29T23:09:49.525Z,8.52
2023-01-29T23:12:16.776Z,7.78
2023-01-29T23:14:43.530Z,8.30
2023-01-29T23:17:12.409Z,7.80
2023-01-29T23:19:42.405Z,8.90
2023-01-29T23:22:09.073Z,8.95
2023-01-29T23:25:03.183Z,7.72
2023-01-29T23:27:31.911Z,8.55
2023-01-29T23:30:01.007Z,7.85
2023-01-29T23:32:27.923Z,8.52
2023-01-29T23:34:54.688Z,8.13
2023-01-29T23:37:23.527Z,8.93
2023-01-29T23:39:56.332Z,9.02
2023-01-29T23:42:24.890Z,8.48
2023-01-29T23:44:51.817Z,9.52
2023-01-29T23:47:18.410Z,8.15
2023-01-29T23:49:52.518Z,9.23
2023-01-29T23:52:25.362Z,9.18
2023-01-29T23:54:54.192Z,8.48
2023-01-29T23:57:23.277Z,8.65
2023-01-29T23:59:50.043Z,9.68
